This is the latest recevied weather packets stored in our database for station/object EA3ANS-1. If no packets are shown the sender has not sent any weather packets the latest 10 day(s).
| Time | Temp. | Humidity | Pressure | Rain* | Wind** | Luminosity | Snow |
|---|---|---|---|---|---|---|---|
| 1778008965 | 13.89° C | - | 1010 hPa | 0 mm | 0 m/s | - | - |
| 1778008367 | 13.89° C | - | 1010.1 hPa | 0 mm | 0.89 m/s, 309° | - | - |
| 1778007762 | 13.89° C | - | 1009.9 hPa | 0 mm | 1.34 m/s, 343° | - | - |
| 1778007163 | 13.89° C | - | 1010 hPa | 0.25 mm | 2.68 m/s, 347° | - | - |
| 1778006562 | 13.89° C | - | 1010.1 hPa | 0.25 mm | 0 m/s | - | - |
| 1778005961 | 13.89° C | - | 1010 hPa | 0.25 mm | 1.34 m/s, 58° | - | - |
| 1778005362 | 13.89° C | - | 1009.7 hPa | 0.25 mm | 0.45 m/s, 44° | - | - |
| 1778004762 | 13.89° C | - | 1009.7 hPa | 0.25 mm | 0.45 m/s, 129° | - | - |
| 1778004164 | 13.89° C | - | 1009.8 hPa | 0.25 mm | 0 m/s | - | - |
| 1778003560 | 13.89° C | - | 1009.7 hPa | 2.03 mm | 0 m/s | - | - |
| 1778002961 | 13.89° C | - | 1009.7 hPa | 2.03 mm | 1.34 m/s, 56° | - | - |
| 1778002364 | 14.44° C | - | 1009.8 hPa | 2.03 mm | 0 m/s | - | - |
| 1778001760 | 13.89° C | - | 1009.8 hPa | 2.03 mm | 0 m/s | - | - |
| 1778001160 | 13.89° C | - | 1009.5 hPa | 2.03 mm | 1.34 m/s, 3° | - | - |
| 1778000563 | 13.89° C | - | 1009.8 hPa | 2.03 mm | 0 m/s | - | - |
| 1777999964 | 14.44° C | - | 1010 hPa | 2.03 mm | 1.79 m/s, 70° | - | - |
| 1777999361 | 14.44° C | - | 1010.1 hPa | 2.03 mm | 0 m/s | - | - |
| 1777998761 | 13.89° C | - | 1010.5 hPa | 2.03 mm | 1.34 m/s, 287° | - | - |
| 1777998160 | 15° C | - | 1010.2 hPa | 2.03 mm | 0 m/s | - | - |
| 1777997560 | 15° C | - | 1010.3 hPa | 2.03 mm | 2.24 m/s, 312° | - | - |
| 1777996962 | 15° C | - | 1010.5 hPa | 2.03 mm | 0 m/s | - | - |
| 1777996364 | 15° C | - | 1010.4 hPa | 0 mm | 0.45 m/s, 333° | - | - |
| 1777995763 | 15.56° C | - | 1010.1 hPa | 0 mm | 2.68 m/s, 298° | - | - |
| 1777995160 | 16.67° C | - | 1009.8 hPa | 0 mm | 3.13 m/s, 293° | - | - |
| 1777994563 | 18.89° C | - | 1009.3 hPa | 0 mm | 2.68 m/s, 188° | - | - |
* Rain latest hour (hover to see other rain measurements)
** Current wind speed in m/s (hover to see current wind gust speed)